sensor_id;sensor_type;location;lat;lon;timestamp;temperature;humidity
55203;DHT22;41077;52.956;6.796;2023-03-03T00:01:34;2.20;99.90
55203;DHT22;41077;52.956;6.796;2023-03-03T00:04:00;2.20;99.90
55203;DHT22;41077;52.956;6.796;2023-03-03T00:06:26;2.20;99.90
55203;DHT22;41077;52.956;6.796;2023-03-03T00:08:52;2.30;99.90
55203;DHT22;41077;52.956;6.796;2023-03-03T00:11:17;2.30;99.90
55203;DHT22;41077;52.956;6.796;2023-03-03T00:13:49;2.30;99.90
55203;DHT22;41077;52.956;6.796;2023-03-03T00:16:37;2.30;99.90
55203;DHT22;41077;52.956;6.796;2023-03-03T00:19:01;2.30;99.90
55203;DHT22;41077;52.956;6.796;2023-03-03T00:21:31;2.30;99.90
55203;DHT22;41077;52.956;6.796;2023-03-03T00:24:24;2.40;99.90
55203;DHT22;41077;52.956;6.796;2023-03-03T00:26:56;2.30;99.90
55203;DHT22;41077;52.956;6.796;2023-03-03T00:29:34;2.40;99.90
55203;DHT22;41077;52.956;6.796;2023-03-03T00:32:23;2.40;99.90
55203;DHT22;41077;52.956;6.796;2023-03-03T00:34:50;2.40;99.90
55203;DHT22;41077;52.956;6.796;2023-03-03T00:37:32;2.40;99.90
55203;DHT22;41077;52.956;6.796;2023-03-03T00:40:23;2.40;99.90
55203;DHT22;41077;52.956;6.796;2023-03-03T00:42:54;2.40;99.90
55203;DHT22;41077;52.956;6.796;2023-03-03T00:47:57;2.40;99.90
55203;DHT22;41077;52.956;6.796;2023-03-03T00:50:32;2.40;99.90
55203;DHT22;41077;52.956;6.796;2023-03-03T00:55:31;2.40;99.90
55203;DHT22;41077;52.956;6.796;2023-03-03T00:57:57;2.40;99.90
55203;DHT22;41077;52.956;6.796;2023-03-03T01:00:23;2.40;99.90
55203;DHT22;41077;52.956;6.796;2023-03-03T01:02:48;2.40;99.90
55203;DHT22;41077;52.956;6.796;2023-03-03T01:05:16;2.40;99.90
55203;DHT22;41077;52.956;6.796;2023-03-03T01:07:42;2.40;99.90
55203;DHT22;41077;52.956;6.796;2023-03-03T01:10:08;2.40;99.90
55203;DHT22;41077;52.956;6.796;2023-03-03T01:12:35;2.40;99.90
55203;DHT22;41077;52.956;6.796;2023-03-03T01:15:01;2.40;99.90
55203;DHT22;41077;52.956;6.796;2023-03-03T01:17:27;2.40;99.90
55203;DHT22;41077;52.956;6.796;2023-03-03T01:19:53;2.40;99.90
55203;DHT22;41077;52.956;6.796;2023-03-03T01:22:18;2.40;99.90
55203;DHT22;41077;52.956;6.796;2023-03-03T01:24:44;2.30;99.90
55203;DHT22;41077;52.956;6.796;2023-03-03T01:27:10;2.50;99.90
55203;DHT22;41077;52.956;6.796;2023-03-03T01:29:35;2.40;99.90
55203;DHT22;41077;52.956;6.796;2023-03-03T01:32:01;2.40;99.90
55203;DHT22;41077;52.956;6.796;2023-03-03T01:34:27;2.40;99.90
55203;DHT22;41077;52.956;6.796;2023-03-03T01:36:52;2.40;99.90
55203;DHT22;41077;52.956;6.796;2023-03-03T01:39:18;2.40;99.90
55203;DHT22;41077;52.956;6.796;2023-03-03T01:41:44;2.50;99.90
55203;DHT22;41077;52.956;6.796;2023-03-03T01:44:16;2.50;99.90
55203;DHT22;41077;52.956;6.796;2023-03-03T01:52:18;2.50;99.90
55203;DHT22;41077;52.956;6.796;2023-03-03T01:54:52;2.50;99.90
55203;DHT22;41077;52.956;6.796;2023-03-03T01:57:28;2.50;99.90
55203;DHT22;41077;52.956;6.796;2023-03-03T01:59:56;2.50;99.90
55203;DHT22;41077;52.956;6.796;2023-03-03T02:02:24;2.50;99.90
55203;DHT22;41077;52.956;6.796;2023-03-03T02:04:51;2.50;99.90
55203;DHT22;41077;52.956;6.796;2023-03-03T02:07:19;2.50;99.90
55203;DHT22;41077;52.956;6.796;2023-03-03T02:12:43;2.50;99.90
55203;DHT22;41077;52.956;6.796;2023-03-03T02:17:51;2.50;99.90
55203;DHT22;41077;52.956;6.796;2023-03-03T02:28:23;2.40;99.90
55203;DHT22;41077;52.956;6.796;2023-03-03T02:30:52;2.50;99.90
55203;DHT22;41077;52.956;6.796;2023-03-03T02:33:18;2.50;99.90
55203;DHT22;41077;52.956;6.796;2023-03-03T02:35:44;2.50;99.90
55203;DHT22;41077;52.956;6.796;2023-03-03T02:44:10;2.40;99.90
55203;DHT22;41077;52.956;6.796;2023-03-03T02:46:38;2.40;99.90
55203;DHT22;41077;52.956;6.796;2023-03-03T02:49:06;2.50;99.90
55203;DHT22;41077;52.956;6.796;2023-03-03T02:51:33;2.50;99.90
55203;DHT22;41077;52.956;6.796;2023-03-03T02:53:59;2.50;99.90
55203;DHT22;41077;52.956;6.796;2023-03-03T02:56:25;2.50;99.90
55203;DHT22;41077;52.956;6.796;2023-03-03T02:58:50;2.50;99.90
55203;DHT22;41077;52.956;6.796;2023-03-03T03:01:16;2.60;99.90
55203;DHT22;41077;52.956;6.796;2023-03-03T03:03:42;2.50;99.90
55203;DHT22;41077;52.956;6.796;2023-03-03T03:06:08;2.60;99.90
55203;DHT22;41077;52.956;6.796;2023-03-03T03:08:34;2.60;99.90
55203;DHT22;41077;52.956;6.796;2023-03-03T03:11:00;2.60;99.90
55203;DHT22;41077;52.956;6.796;2023-03-03T03:13:26;2.60;99.90
55203;DHT22;41077;52.956;6.796;2023-03-03T03:15:52;2.60;99.90
55203;DHT22;41077;52.956;6.796;2023-03-03T03:18:18;2.60;99.90
55203;DHT22;41077;52.956;6.796;2023-03-03T03:20:44;2.50;99.90
55203;DHT22;41077;52.956;6.796;2023-03-03T03:23:10;2.50;99.90
55203;DHT22;41077;52.956;6.796;2023-03-03T03:25:36;2.60;99.90
55203;DHT22;41077;52.956;6.796;2023-03-03T03:28:14;2.60;99.90
55203;DHT22;41077;52.956;6.796;2023-03-03T03:30:41;2.50;99.90
55203;DHT22;41077;52.956;6.796;2023-03-03T03:33:08;2.60;99.90
55203;DHT22;41077;52.956;6.796;2023-03-03T03:35:35;2.60;99.90
55203;DHT22;41077;52.956;6.796;2023-03-03T03:38:01;2.60;99.90
55203;DHT22;41077;52.956;6.796;2023-03-03T03:40:27;2.60;99.90
55203;DHT22;41077;52.956;6.796;2023-03-03T03:42:53;2.70;99.90
55203;DHT22;41077;52.956;6.796;2023-03-03T03:45:19;2.60;99.90
55203;DHT22;41077;52.956;6.796;2023-03-03T03:47:45;2.60;99.90
55203;DHT22;41077;52.956;6.796;2023-03-03T03:50:11;2.60;99.90
55203;DHT22;41077;52.956;6.796;2023-03-03T03:52:37;2.50;99.90
55203;DHT22;41077;52.956;6.796;2023-03-03T03:55:03;2.50;99.90
55203;DHT22;41077;52.956;6.796;2023-03-03T03:57:29;2.50;99.90
55203;DHT22;41077;52.956;6.796;2023-03-03T03:59:54;2.50;99.90
55203;DHT22;41077;52.956;6.796;2023-03-03T04:02:20;2.60;99.90
55203;DHT22;41077;52.956;6.796;2023-03-03T04:04:46;2.60;99.90
55203;DHT22;41077;52.956;6.796;2023-03-03T04:07:11;2.60;99.90
55203;DHT22;41077;52.956;6.796;2023-03-03T04:09:37;2.60;99.90
55203;DHT22;41077;52.956;6.796;2023-03-03T04:12:03;2.60;99.90
55203;DHT22;41077;52.956;6.796;2023-03-03T04:14:29;2.60;99.90
55203;DHT22;41077;52.956;6.796;2023-03-03T04:16:55;2.60;99.90
55203;DHT22;41077;52.956;6.796;2023-03-03T04:19:21;2.60;99.90
55203;DHT22;41077;52.956;6.796;2023-03-03T04:21:46;2.60;99.90
55203;DHT22;41077;52.956;6.796;2023-03-03T04:24:12;2.60;99.90
55203;DHT22;41077;52.956;6.796;2023-03-03T04:26:38;2.60;99.90
55203;DHT22;41077;52.956;6.796;2023-03-03T04:29:04;2.60;99.90
55203;DHT22;41077;52.956;6.796;2023-03-03T04:31:29;2.60;99.90
55203;DHT22;41077;52.956;6.796;2023-03-03T04:33:55;2.60;99.90
55203;DHT22;41077;52.956;6.796;2023-03-03T04:36:21;2.60;99.90
55203;DHT22;41077;52.956;6.796;2023-03-03T04:38:47;2.60;99.90
55203;DHT22;41077;52.956;6.796;2023-03-03T04:41:14;2.60;99.90
55203;DHT22;41077;52.956;6.796;2023-03-03T04:43:39;2.60;99.90
55203;DHT22;41077;52.956;6.796;2023-03-03T04:46:05;2.60;99.90
55203;DHT22;41077;52.956;6.796;2023-03-03T04:48:31;2.60;99.90
55203;DHT22;41077;52.956;6.796;2023-03-03T04:50:56;2.60;99.90
55203;DHT22;41077;52.956;6.796;2023-03-03T04:53:22;2.60;99.90
55203;DHT22;41077;52.956;6.796;2023-03-03T04:55:52;2.70;99.90
55203;DHT22;41077;52.956;6.796;2023-03-03T04:58:19;2.60;99.90
55203;DHT22;41077;52.956;6.796;2023-03-03T05:00:53;2.60;99.90
55203;DHT22;41077;52.956;6.796;2023-03-03T05:03:19;2.60;99.90
55203;DHT22;41077;52.956;6.796;2023-03-03T05:05:46;2.60;99.90
55203;DHT22;41077;52.956;6.796;2023-03-03T05:08:12;2.60;99.90
55203;DHT22;41077;52.956;6.796;2023-03-03T05:10:38;2.60;99.90
55203;DHT22;41077;52.956;6.796;2023-03-03T05:13:04;2.60;99.90
55203;DHT22;41077;52.956;6.796;2023-03-03T05:15:30;2.60;99.90
55203;DHT22;41077;52.956;6.796;2023-03-03T05:17:56;2.50;99.90
55203;DHT22;41077;52.956;6.796;2023-03-03T05:20:23;2.50;99.90
55203;DHT22;41077;52.956;6.796;2023-03-03T05:22:49;2.50;99.90
55203;DHT22;41077;52.956;6.796;2023-03-03T05:25:15;2.40;99.90
55203;DHT22;41077;52.956;6.796;2023-03-03T05:27:41;2.50;99.90
55203;DHT22;41077;52.956;6.796;2023-03-03T05:30:09;2.50;99.90
55203;DHT22;41077;52.956;6.796;2023-03-03T05:32:35;2.50;99.90
55203;DHT22;41077;52.956;6.796;2023-03-03T05:35:01;2.50;99.90
55203;DHT22;41077;52.956;6.796;2023-03-03T05:37:27;2.50;99.90
55203;DHT22;41077;52.956;6.796;2023-03-03T05:39:52;2.50;99.90
55203;DHT22;41077;52.956;6.796;2023-03-03T05:42:18;2.50;99.90
55203;DHT22;41077;52.956;6.796;2023-03-03T05:44:44;2.50;99.90
55203;DHT22;41077;52.956;6.796;2023-03-03T05:47:10;2.40;99.90
55203;DHT22;41077;52.956;6.796;2023-03-03T05:49:35;2.40;99.90
55203;DHT22;41077;52.956;6.796;2023-03-03T05:52:01;2.40;99.90
55203;DHT22;41077;52.956;6.796;2023-03-03T05:54:27;2.40;99.90
55203;DHT22;41077;52.956;6.796;2023-03-03T05:56:53;2.40;99.90
55203;DHT22;41077;52.956;6.796;2023-03-03T05:59:18;2.30;99.90
55203;DHT22;41077;52.956;6.796;2023-03-03T06:01:45;2.30;99.90
55203;DHT22;41077;52.956;6.796;2023-03-03T06:04:10;2.30;99.90
55203;DHT22;41077;52.956;6.796;2023-03-03T06:06:36;2.20;99.90
55203;DHT22;41077;52.956;6.796;2023-03-03T06:09:02;2.30;99.90
55203;DHT22;41077;52.956;6.796;2023-03-03T06:11:27;2.20;99.90
55203;DHT22;41077;52.956;6.796;2023-03-03T06:13:53;2.20;99.90
55203;DHT22;41077;52.956;6.796;2023-03-03T06:16:19;2.20;99.90
55203;DHT22;41077;52.956;6.796;2023-03-03T06:18:45;2.20;99.90
55203;DHT22;41077;52.956;6.796;2023-03-03T06:21:10;2.20;99.90
55203;DHT22;41077;52.956;6.796;2023-03-03T06:23:37;2.20;99.90
55203;DHT22;41077;52.956;6.796;2023-03-03T06:26:03;2.20;99.90
55203;DHT22;41077;52.956;6.796;2023-03-03T06:28:29;2.10;99.90
55203;DHT22;41077;52.956;6.796;2023-03-03T06:30:55;2.10;99.90
55203;DHT22;41077;52.956;6.796;2023-03-03T06:33:21;2.10;99.90
55203;DHT22;41077;52.956;6.796;2023-03-03T06:35:52;2.00;99.90
55203;DHT22;41077;52.956;6.796;2023-03-03T06:38:18;2.00;99.90
55203;DHT22;41077;52.956;6.796;2023-03-03T06:40:45;2.00;99.90
55203;DHT22;41077;52.956;6.796;2023-03-03T06:43:12;2.00;99.90
55203;DHT22;41077;52.956;6.796;2023-03-03T06:45:38;2.00;99.90
55203;DHT22;41077;52.956;6.796;2023-03-03T06:48:04;2.00;99.90
55203;DHT22;41077;52.956;6.796;2023-03-03T06:50:30;2.00;99.90
55203;DHT22;41077;52.956;6.796;2023-03-03T06:53:16;2.00;99.90
55203;DHT22;41077;52.956;6.796;2023-03-03T06:55:42;2.00;99.90
55203;DHT22;41077;52.956;6.796;2023-03-03T06:58:17;2.00;99.90
55203;DHT22;41077;52.956;6.796;2023-03-03T07:00:45;2.00;99.90
55203;DHT22;41077;52.956;6.796;2023-03-03T07:03:17;2.00;99.90
55203;DHT22;41077;52.956;6.796;2023-03-03T07:05:43;2.00;99.90
55203;DHT22;41077;52.956;6.796;2023-03-03T07:08:16;2.00;99.90
55203;DHT22;41077;52.956;6.796;2023-03-03T07:10:42;2.00;99.90
55203;DHT22;41077;52.956;6.796;2023-03-03T07:13:28;2.10;99.90
55203;DHT22;41077;52.956;6.796;2023-03-03T07:16:00;2.00;99.90
55203;DHT22;41077;52.956;6.796;2023-03-03T07:18:36;2.10;99.90
55203;DHT22;41077;52.956;6.796;2023-03-03T07:23:48;2.10;99.90
55203;DHT22;41077;52.956;6.796;2023-03-03T07:26:19;2.20;99.90
55203;DHT22;41077;52.956;6.796;2023-03-03T07:28:59;2.10;99.90
55203;DHT22;41077;52.956;6.796;2023-03-03T07:31:27;2.10;99.90
55203;DHT22;41077;52.956;6.796;2023-03-03T07:33:54;2.10;99.90
55203;DHT22;41077;52.956;6.796;2023-03-03T07:36:46;2.20;99.90
55203;DHT22;41077;52.956;6.796;2023-03-03T07:39:37;2.20;99.90
55203;DHT22;41077;52.956;6.796;2023-03-03T07:42:40;2.20;99.90
55203;DHT22;41077;52.956;6.796;2023-03-03T07:45:42;2.20;99.90
55203;DHT22;41077;52.956;6.796;2023-03-03T07:50:40;2.40;99.90
55203;DHT22;41077;52.956;6.796;2023-03-03T07:53:24;2.30;99.90
55203;DHT22;41077;52.956;6.796;2023-03-03T07:55:50;2.30;99.90
55203;DHT22;41077;52.956;6.796;2023-03-03T07:58:37;2.40;99.90
55203;DHT22;41077;52.956;6.796;2023-03-03T08:03:48;2.40;99.90
55203;DHT22;41077;52.956;6.796;2023-03-03T08:11:36;2.50;99.90
55203;DHT22;41077;52.956;6.796;2023-03-03T08:14:09;2.50;99.90
55203;DHT22;41077;52.956;6.796;2023-03-03T08:16:39;2.50;99.90
55203;DHT22;41077;52.956;6.796;2023-03-03T08:19:05;2.60;99.90
55203;DHT22;41077;52.956;6.796;2023-03-03T08:21:32;2.60;99.90
55203;DHT22;41077;52.956;6.796;2023-03-03T08:24:00;2.60;99.90
55203;DHT22;41077;52.956;6.796;2023-03-03T08:26:26;2.70;99.90
55203;DHT22;41077;52.956;6.796;2023-03-03T08:28:52;2.80;99.90
55203;DHT22;41077;52.956;6.796;2023-03-03T08:31:18;2.70;99.90
55203;DHT22;41077;52.956;6.796;2023-03-03T08:33:45;2.70;99.90
55203;DHT22;41077;52.956;6.796;2023-03-03T08:36:11;2.70;99.90
55203;DHT22;41077;52.956;6.796;2023-03-03T08:38:38;2.70;99.90
55203;DHT22;41077;52.956;6.796;2023-03-03T08:41:04;2.80;99.90
55203;DHT22;41077;52.956;6.796;2023-03-03T08:43:30;2.90;99.90
55203;DHT22;41077;52.956;6.796;2023-03-03T08:45:58;3.00;99.90
55203;DHT22;41077;52.956;6.796;2023-03-03T08:48:24;3.00;99.90
55203;DHT22;41077;52.956;6.796;2023-03-03T08:50:50;3.00;99.90
55203;DHT22;41077;52.956;6.796;2023-03-03T08:53:17;3.10;99.90
55203;DHT22;41077;52.956;6.796;2023-03-03T08:55:43;2.90;99.90
55203;DHT22;41077;52.956;6.796;2023-03-03T08:58:10;3.00;99.90
55203;DHT22;41077;52.956;6.796;2023-03-03T09:00:35;3.00;99.90
55203;DHT22;41077;52.956;6.796;2023-03-03T09:03:03;3.20;99.90
55203;DHT22;41077;52.956;6.796;2023-03-03T09:05:32;3.20;99.90
55203;DHT22;41077;52.956;6.796;2023-03-03T09:07:58;3.30;99.90
55203;DHT22;41077;52.956;6.796;2023-03-03T09:10:27;3.30;99.90
55203;DHT22;41077;52.956;6.796;2023-03-03T09:12:54;3.40;99.90
55203;DHT22;41077;52.956;6.796;2023-03-03T09:15:28;3.40;99.90
55203;DHT22;41077;52.956;6.796;2023-03-03T09:18:18;3.50;99.90
55203;DHT22;41077;52.956;6.796;2023-03-03T09:20:46;3.50;99.90
55203;DHT22;41077;52.956;6.796;2023-03-03T09:23:38;3.50;99.90
55203;DHT22;41077;52.956;6.796;2023-03-03T09:26:44;3.50;99.90
55203;DHT22;41077;52.956;6.796;2023-03-03T09:31:50;3.60;99.90
55203;DHT22;41077;52.956;6.796;2023-03-03T09:37:13;3.70;99.90
55203;DHT22;41077;52.956;6.796;2023-03-03T09:39:40;3.70;99.90
55203;DHT22;41077;52.956;6.796;2023-03-03T09:55:58;3.80;99.90
55203;DHT22;41077;52.956;6.796;2023-03-03T10:06:48;4.00;99.90
55203;DHT22;41077;52.956;6.796;2023-03-03T10:10:00;4.10;99.90
55203;DHT22;41077;52.956;6.796;2023-03-03T10:12:56;4.10;99.90
55203;DHT22;41077;52.956;6.796;2023-03-03T10:15:29;4.20;99.90
55203;DHT22;41077;52.956;6.796;2023-03-03T10:21:01;4.40;99.90
55203;DHT22;41077;52.956;6.796;2023-03-03T10:26:40;4.40;99.90
55203;DHT22;41077;52.956;6.796;2023-03-03T10:34:47;4.50;99.90
55203;DHT22;41077;52.956;6.796;2023-03-03T10:37:30;4.50;99.90
55203;DHT22;41077;52.956;6.796;2023-03-03T10:48:40;4.70;99.90
55203;DHT22;41077;52.956;6.796;2023-03-03T10:51:53;4.80;99.90
55203;DHT22;41077;52.956;6.796;2023-03-03T11:00:20;5.00;99.90
55203;DHT22;41077;52.956;6.796;2023-03-03T11:05:54;5.20;99.90
55203;DHT22;41077;52.956;6.796;2023-03-03T11:08:27;5.30;99.90
55203;DHT22;41077;52.956;6.796;2023-03-03T11:11:19;5.40;99.90
55203;DHT22;41077;52.956;6.796;2023-03-03T11:14:37;5.40;99.90
55203;DHT22;41077;52.956;6.796;2023-03-03T11:22:38;5.90;99.90
55203;DHT22;41077;52.956;6.796;2023-03-03T11:25:29;6.00;99.90
55203;DHT22;41077;52.956;6.796;2023-03-03T11:28:02;6.10;99.90
55203;DHT22;41077;52.956;6.796;2023-03-03T11:30:48;6.20;99.90
55203;DHT22;41077;52.956;6.796;2023-03-03T11:33:21;6.20;99.90
55203;DHT22;41077;52.956;6.796;2023-03-03T11:44:17;6.60;99.90
55203;DHT22;41077;52.956;6.796;2023-03-03T11:46:57;6.70;99.90
55203;DHT22;41077;52.956;6.796;2023-03-03T12:02:51;6.90;99.90
55203;DHT22;41077;52.956;6.796;2023-03-03T12:05:38;7.00;99.90
55203;DHT22;41077;52.956;6.796;2023-03-03T12:19:37;7.40;99.90
55203;DHT22;41077;52.956;6.796;2023-03-03T12:22:30;7.40;99.90
55203;DHT22;41077;52.956;6.796;2023-03-03T12:36:01;7.30;99.90
55203;DHT22;41077;52.956;6.796;2023-03-03T12:38:37;7.20;99.90
55203;DHT22;41077;52.956;6.796;2023-03-03T12:44:06;7.30;99.90
55203;DHT22;41077;52.956;6.796;2023-03-03T12:49:07;7.50;99.90
55203;DHT22;41077;52.956;6.796;2023-03-03T13:02:45;7.40;99.90
55203;DHT22;41077;52.956;6.796;2023-03-03T13:08:24;7.40;99.90
55203;DHT22;41077;52.956;6.796;2023-03-03T13:13:33;7.40;99.90
55203;DHT22;41077;52.956;6.796;2023-03-03T13:16:09;7.50;99.90
55203;DHT22;41077;52.956;6.796;2023-03-03T13:21:30;7.50;99.90
55203;DHT22;41077;52.956;6.796;2023-03-03T13:24:15;7.50;99.90
55203;DHT22;41077;52.956;6.796;2023-03-03T13:26:43;7.60;99.90
55203;DHT22;41077;52.956;6.796;2023-03-03T13:29:26;7.70;99.90
55203;DHT22;41077;52.956;6.796;2023-03-03T13:31:59;8.00;99.90
55203;DHT22;41077;52.956;6.796;2023-03-03T13:34:45;8.70;99.90
55203;DHT22;41077;52.956;6.796;2023-03-03T13:37:31;9.00;99.90
55203;DHT22;41077;52.956;6.796;2023-03-03T13:40:02;9.40;99.90
55203;DHT22;41077;52.956;6.796;2023-03-03T13:45:27;9.40;99.90
55203;DHT22;41077;52.956;6.796;2023-03-03T13:50:55;9.20;99.90
55203;DHT22;41077;52.956;6.796;2023-03-03T14:04:05;8.70;99.90
55203;DHT22;41077;52.956;6.796;2023-03-03T14:06:36;8.80;99.90
55203;DHT22;41077;52.956;6.796;2023-03-03T14:09:33;9.10;99.90
55203;DHT22;41077;52.956;6.796;2023-03-03T14:12:23;9.30;99.90
55203;DHT22;41077;52.956;6.796;2023-03-03T14:17:40;9.20;99.90
55203;DHT22;41077;52.956;6.796;2023-03-03T14:20:29;9.30;99.90
55203;DHT22;41077;52.956;6.796;2023-03-03T14:23:01;9.30;99.90
55203;DHT22;41077;52.956;6.796;2023-03-03T14:25:58;9.20;99.90
55203;DHT22;41077;52.956;6.796;2023-03-03T14:28:28;9.00;99.90
55203;DHT22;41077;52.956;6.796;2023-03-03T14:34:02;8.90;99.90
55203;DHT22;41077;52.956;6.796;2023-03-03T14:36:42;9.30;99.90
55203;DHT22;41077;52.956;6.796;2023-03-03T14:39:37;9.90;99.90
55203;DHT22;41077;52.956;6.796;2023-03-03T14:42:30;10.10;99.90
55203;DHT22;41077;52.956;6.796;2023-03-03T14:45:00;9.80;99.90
55203;DHT22;41077;52.956;6.796;2023-03-03T14:47:27;9.50;99.90
55203;DHT22;41077;52.956;6.796;2023-03-03T14:49:55;9.40;99.90
55203;DHT22;41077;52.956;6.796;2023-03-03T14:52:26;9.50;99.90
55203;DHT22;41077;52.956;6.796;2023-03-03T14:55:00;9.50;99.90
55203;DHT22;41077;52.956;6.796;2023-03-03T15:07:50;11.10;99.90
55203;DHT22;41077;52.956;6.796;2023-03-03T15:10:36;11.10;99.90
55203;DHT22;41077;52.956;6.796;2023-03-03T15:18:29;10.40;99.90
55203;DHT22;41077;52.956;6.796;2023-03-03T15:21:12;10.40;99.90
55203;DHT22;41077;52.956;6.796;2023-03-03T15:29:21;11.20;99.90
55203;DHT22;41077;52.956;6.796;2023-03-03T15:34:38;10.10;99.90
55203;DHT22;41077;52.956;6.796;2023-03-03T15:40:08;9.20;99.90
55203;DHT22;41077;52.956;6.796;2023-03-03T15:42:51;9.00;99.90
55203;DHT22;41077;52.956;6.796;2023-03-03T15:45:31;8.80;99.90
55203;DHT22;41077;52.956;6.796;2023-03-03T15:48:21;8.50;99.90
55203;DHT22;41077;52.956;6.796;2023-03-03T16:04:37;7.80;99.90
55203;DHT22;41077;52.956;6.796;2023-03-03T16:10:00;7.80;99.90
55203;DHT22;41077;52.956;6.796;2023-03-03T16:16:04;7.60;99.90
55203;DHT22;41077;52.956;6.796;2023-03-03T16:18:52;7.50;99.90
55203;DHT22;41077;52.956;6.796;2023-03-03T16:27:20;7.40;99.90
55203;DHT22;41077;52.956;6.796;2023-03-03T16:33:35;7.30;99.90
55203;DHT22;41077;52.956;6.796;2023-03-03T16:36:24;7.20;99.90
55203;DHT22;41077;52.956;6.796;2023-03-03T16:39:14;7.20;99.90
55203;DHT22;41077;52.956;6.796;2023-03-03T16:41:54;7.20;99.90
55203;DHT22;41077;52.956;6.796;2023-03-03T16:44:35;7.10;99.90
55203;DHT22;41077;52.956;6.796;2023-03-03T16:53:08;7.00;99.90
55203;DHT22;41077;52.956;6.796;2023-03-03T17:01:11;7.00;99.90
55203;DHT22;41077;52.956;6.796;2023-03-03T17:03:58;6.90;99.90
55203;DHT22;41077;52.956;6.796;2023-03-03T17:06:30;7.00;99.90
55203;DHT22;41077;52.956;6.796;2023-03-03T17:09:22;6.90;99.90
55203;DHT22;41077;52.956;6.796;2023-03-03T17:12:06;6.90;99.90
55203;DHT22;41077;52.956;6.796;2023-03-03T17:28:30;6.80;99.90
55203;DHT22;41077;52.956;6.796;2023-03-03T17:31:22;6.80;99.90
55203;DHT22;41077;52.956;6.796;2023-03-03T17:36:41;6.80;99.90
55203;DHT22;41077;52.956;6.796;2023-03-03T17:45:32;6.80;99.90
55203;DHT22;41077;52.956;6.796;2023-03-03T17:56:27;6.70;99.90
55203;DHT22;41077;52.956;6.796;2023-03-03T17:59:21;6.70;99.90
55203;DHT22;41077;52.956;6.796;2023-03-03T18:08:07;6.70;99.90
55203;DHT22;41077;52.956;6.796;2023-03-03T18:11:02;6.70;99.90
55203;DHT22;41077;52.956;6.796;2023-03-03T18:14:02;6.80;99.90
55203;DHT22;41077;52.956;6.796;2023-03-03T18:19:50;6.70;99.90
55203;DHT22;41077;52.956;6.796;2023-03-03T18:22:31;6.70;99.90
55203;DHT22;41077;52.956;6.796;2023-03-03T18:25:07;6.70;99.90
55203;DHT22;41077;52.956;6.796;2023-03-03T18:27:38;6.70;99.90
55203;DHT22;41077;52.956;6.796;2023-03-03T18:35:32;6.60;99.90
55203;DHT22;41077;52.956;6.796;2023-03-03T18:54:26;6.60;99.90
55203;DHT22;41077;52.956;6.796;2023-03-03T19:07:22;6.50;99.90
55203;DHT22;41077;52.956;6.796;2023-03-03T19:10:00;6.50;99.90
55203;DHT22;41077;52.956;6.796;2023-03-03T19:18:14;6.50;99.90
55203;DHT22;41077;52.956;6.796;2023-03-03T19:20:44;6.50;99.90
55203;DHT22;41077;52.956;6.796;2023-03-03T19:23:18;6.50;99.90
55203;DHT22;41077;52.956;6.796;2023-03-03T19:25:44;6.50;99.90
55203;DHT22;41077;52.956;6.796;2023-03-03T19:41:55;6.40;99.90
55203;DHT22;41077;52.956;6.796;2023-03-03T19:47:53;6.40;99.90
55203;DHT22;41077;52.956;6.796;2023-03-03T19:55:47;6.40;99.90
55203;DHT22;41077;52.956;6.796;2023-03-03T19:58:21;6.40;99.90
55203;DHT22;41077;52.956;6.796;2023-03-03T20:01:00;6.30;99.90
55203;DHT22;41077;52.956;6.796;2023-03-03T20:06:31;6.40;99.90
55203;DHT22;41077;52.956;6.796;2023-03-03T20:09:25;6.40;99.90
55203;DHT22;41077;52.956;6.796;2023-03-03T20:14:52;6.40;99.90
55203;DHT22;41077;52.956;6.796;2023-03-03T20:20:52;6.40;99.90
55203;DHT22;41077;52.956;6.796;2023-03-03T20:26:25;6.30;99.90
55203;DHT22;41077;52.956;6.796;2023-03-03T20:31:46;6.40;99.90
55203;DHT22;41077;52.956;6.796;2023-03-03T20:34:33;6.40;99.90
55203;DHT22;41077;52.956;6.796;2023-03-03T20:37:25;6.30;99.90
55203;DHT22;41077;52.956;6.796;2023-03-03T20:42:50;6.30;99.90
55203;DHT22;41077;52.956;6.796;2023-03-03T20:48:26;6.30;99.90
55203;DHT22;41077;52.956;6.796;2023-03-03T20:51:12;6.40;99.90
55203;DHT22;41077;52.956;6.796;2023-03-03T20:53:50;6.40;99.90
55203;DHT22;41077;52.956;6.796;2023-03-03T20:56:30;6.40;99.90
55203;DHT22;41077;52.956;6.796;2023-03-03T21:04:19;6.40;99.90
55203;DHT22;41077;52.956;6.796;2023-03-03T21:06:44;6.40;99.90
55203;DHT22;41077;52.956;6.796;2023-03-03T21:09:34;6.40;99.90
55203;DHT22;41077;52.956;6.796;2023-03-03T21:12:05;6.40;99.90
55203;DHT22;41077;52.956;6.796;2023-03-03T21:14:34;6.40;99.90
55203;DHT22;41077;52.956;6.796;2023-03-03T21:17:23;6.40;99.90
55203;DHT22;41077;52.956;6.796;2023-03-03T21:19:49;6.30;99.90
55203;DHT22;41077;52.956;6.796;2023-03-03T21:22:15;6.30;99.90
55203;DHT22;41077;52.956;6.796;2023-03-03T21:24:54;6.30;99.90
55203;DHT22;41077;52.956;6.796;2023-03-03T21:27:34;6.40;99.90
55203;DHT22;41077;52.956;6.796;2023-03-03T21:30:14;6.30;99.90
55203;DHT22;41077;52.956;6.796;2023-03-03T21:32:49;6.40;99.90
55203;DHT22;41077;52.956;6.796;2023-03-03T21:35:18;6.40;99.90
55203;DHT22;41077;52.956;6.796;2023-03-03T21:42:51;6.30;99.90
55203;DHT22;41077;52.956;6.796;2023-03-03T21:45:16;6.40;99.90
55203;DHT22;41077;52.956;6.796;2023-03-03T21:47:45;6.40;99.90
55203;DHT22;41077;52.956;6.796;2023-03-03T21:50:11;6.40;99.90
55203;DHT22;41077;52.956;6.796;2023-03-03T21:52:37;6.40;99.90
55203;DHT22;41077;52.956;6.796;2023-03-03T21:55:04;6.40;99.90
55203;DHT22;41077;52.956;6.796;2023-03-03T21:57:29;6.40;99.90
55203;DHT22;41077;52.956;6.796;2023-03-03T21:59:55;6.40;99.90
55203;DHT22;41077;52.956;6.796;2023-03-03T22:02:21;6.40;99.90
55203;DHT22;41077;52.956;6.796;2023-03-03T22:04:46;6.40;99.90
55203;DHT22;41077;52.956;6.796;2023-03-03T22:07:12;6.40;99.90
55203;DHT22;41077;52.956;6.796;2023-03-03T22:09:38;6.40;99.90
55203;DHT22;41077;52.956;6.796;2023-03-03T22:12:05;6.40;99.90
55203;DHT22;41077;52.956;6.796;2023-03-03T22:14:31;6.40;99.90
55203;DHT22;41077;52.956;6.796;2023-03-03T22:16:57;6.40;99.90
55203;DHT22;41077;52.956;6.796;2023-03-03T22:19:23;6.40;99.90
55203;DHT22;41077;52.956;6.796;2023-03-03T22:21:49;6.40;99.90
55203;DHT22;41077;52.956;6.796;2023-03-03T22:24:16;6.40;99.90
55203;DHT22;41077;52.956;6.796;2023-03-03T22:26:42;6.40;99.90
55203;DHT22;41077;52.956;6.796;2023-03-03T22:29:08;6.40;99.90
55203;DHT22;41077;52.956;6.796;2023-03-03T22:31:34;6.40;99.90
55203;DHT22;41077;52.956;6.796;2023-03-03T22:34:00;6.30;99.90
55203;DHT22;41077;52.956;6.796;2023-03-03T22:36:26;6.40;99.90
55203;DHT22;41077;52.956;6.796;2023-03-03T22:38:52;6.40;99.90
55203;DHT22;41077;52.956;6.796;2023-03-03T22:41:18;6.40;99.90
55203;DHT22;41077;52.956;6.796;2023-03-03T22:43:43;6.40;99.90
55203;DHT22;41077;52.956;6.796;2023-03-03T22:46:09;6.30;99.90
55203;DHT22;41077;52.956;6.796;2023-03-03T22:48:35;6.30;99.90
55203;DHT22;41077;52.956;6.796;2023-03-03T22:51:02;6.40;99.90
55203;DHT22;41077;52.956;6.796;2023-03-03T22:53:28;6.30;99.90